createdAt,value
2016-05-15T00:00:15.653Z,87.76
2016-05-15T00:01:15.608Z,87.9
2016-05-15T00:02:15.580Z,87.95
2016-05-15T00:03:15.535Z,87.95
2016-05-15T00:04:15.508Z,87.66
2016-05-15T00:05:15.480Z,87.95
2016-05-15T00:06:15.435Z,87.95
2016-05-15T00:07:15.391Z,87.76
2016-05-15T00:08:15.456Z,87.47
2016-05-15T00:09:15.317Z,87.76
2016-05-15T00:10:15.289Z,88.04
2016-05-15T00:11:15.261Z,87.76
2016-05-15T00:12:15.248Z,87.47
2016-05-15T00:13:15.188Z,87.95
2016-05-15T00:14:15.159Z,87.76
2016-05-15T00:15:15.115Z,88.23
2016-05-15T00:16:15.071Z,88.33
2016-05-15T00:17:15.042Z,88.52
2016-05-15T00:18:15.014Z,88.42
2016-05-15T00:19:14.970Z,88.61
2016-05-15T00:20:14.988Z,88.71
2016-05-15T00:21:14.928Z,88.8
2016-05-15T00:22:14.869Z,88.9
2016-05-15T00:23:14.824Z,89.18
2016-05-15T00:24:14.796Z,89
2016-05-15T00:25:14.767Z,89.28
2016-05-15T00:26:14.723Z,89.18
2016-05-15T00:27:14.694Z,89.37
2016-05-15T00:28:14.650Z,89.47
2016-05-15T00:29:14.621Z,89.75
2016-05-15T00:30:14.577Z,90.14
2016-05-15T00:31:14.549Z,89.94
2016-05-15T00:32:14.505Z,90.52
2016-05-15T00:33:14.477Z,89.85
2016-05-15T00:34:14.760Z,90.61
2016-05-15T00:35:14.404Z,90.42
2016-05-15T00:36:14.374Z,90.61
2016-05-15T00:37:14.330Z,90.66
2016-05-15T00:38:14.302Z,90.42
2016-05-15T00:39:14.257Z,90.42
2016-05-15T00:40:14.229Z,90.23
2016-05-15T00:41:14.185Z,90.8
2016-05-15T00:42:14.156Z,90.52
2016-05-15T00:43:14.112Z,90.89
2016-05-15T00:44:14.084Z,89.94
2016-05-15T00:45:14.056Z,90.14
2016-05-15T00:46:14.011Z,90.42
2016-05-15T00:47:13.982Z,90.23
2016-05-15T00:48:13.939Z,90.7
2016-05-15T00:49:13.909Z,90.61
2016-05-15T00:50:13.866Z,90.89
2016-05-15T00:51:13.837Z,90.14
2016-05-15T00:52:13.793Z,90.89
2016-05-15T00:53:13.764Z,90.7
2016-05-15T00:54:13.736Z,90.23
2016-05-15T00:55:13.691Z,89.85
2016-05-15T00:56:13.647Z,90.14
2016-05-15T00:57:13.619Z,89.85
2016-05-15T00:58:13.591Z,89.94
2016-05-15T00:59:13.546Z,90.04
2016-05-15T01:00:13.517Z,90.14
2016-05-15T01:01:13.489Z,90.04
2016-05-15T01:02:13.444Z,90.89
2016-05-15T01:03:13.416Z,90.7
2016-05-15T01:04:13.700Z,90.61
2016-05-15T01:05:13.344Z,90.61
2016-05-15T01:06:13.299Z,90.52
2016-05-15T01:07:13.271Z,90.7
2016-05-15T01:08:13.227Z,90.42
2016-05-15T01:09:13.198Z,90.89
2016-05-15T01:10:13.169Z,90.04
2016-05-15T01:11:13.126Z,89.85
2016-05-15T01:12:13.097Z,90.23
2016-05-15T01:13:13.052Z,90.52
2016-05-15T01:14:13.024Z,90.14
2016-05-15T01:15:12.979Z,89.94
2016-05-15T01:16:12.951Z,90.99
2016-05-15T01:17:12.907Z,89.94
2016-05-15T01:18:12.878Z,90.23
2016-05-15T01:19:13.397Z,90.52
2016-05-15T01:20:12.806Z,89.94
2016-05-15T01:21:12.777Z,89.85
2016-05-15T01:22:12.749Z,89.66
2016-05-15T01:23:12.704Z,90.14
2016-05-15T01:24:12.661Z,89.94
2016-05-15T01:25:12.631Z,89.66
2016-05-15T01:26:12.587Z,89.56
2016-05-15T01:27:12.559Z,89.47
2016-05-15T01:28:12.530Z,89.66
2016-05-15T01:29:12.486Z,89
2016-05-15T01:30:12.442Z,89.18
2016-05-15T01:31:12.413Z,89.09
2016-05-15T01:32:12.385Z,89.18
2016-05-15T01:33:12.341Z,89.09
2016-05-15T01:34:12.313Z,89.66
2016-05-15T01:35:12.283Z,89.66
2016-05-15T01:36:12.239Z,89
2016-05-15T01:37:12.196Z,89.18
2016-05-15T01:38:12.166Z,89.37
2016-05-15T01:39:12.122Z,88.9
2016-05-15T01:40:12.094Z,89.37
2016-05-15T01:41:12.065Z,89.47
2016-05-15T01:42:12.037Z,89.47
2016-05-15T01:43:11.992Z,89.56
2016-05-15T01:44:11.948Z,89.28
2016-05-15T01:45:11.920Z,89.28
2016-05-15T01:46:11.875Z,89.56
2016-05-15T01:47:11.847Z,89.56
2016-05-15T01:48:11.818Z,89.66
2016-05-15T01:49:11.774Z,89.37
2016-05-15T01:50:11.731Z,89.66
2016-05-15T01:51:11.701Z,89.94
2016-05-15T01:52:11.673Z,90.14
2016-05-15T01:53:11.628Z,90.04
2016-05-15T01:54:11.601Z,89.85
2016-05-15T01:55:11.556Z,89.94
2016-05-15T01:56:11.528Z,90.33
2016-05-15T01:57:11.483Z,90.04
2016-05-15T01:58:11.455Z,89.94
2016-05-15T01:59:11.411Z,90.8
2016-05-15T02:00:11.382Z,90.52
2016-05-15T02:01:11.353Z,90.7
2016-05-15T02:02:11.325Z,90.42
2016-05-15T02:03:11.281Z,90.23
2016-05-15T02:04:11.236Z,90.33
2016-05-15T02:05:11.208Z,90.7
2016-05-15T02:06:11.163Z,90.52
2016-05-15T02:07:11.135Z,90.61
2016-05-15T02:08:11.091Z,90.7
2016-05-15T02:09:11.062Z,90.42
2016-05-15T02:10:11.019Z,90.7
2016-05-15T02:11:10.990Z,90.8
2016-05-15T02:12:10.961Z,90.61
2016-05-15T02:13:10.917Z,90.52
2016-05-15T02:14:10.874Z,90.52
2016-05-15T02:15:10.844Z,90.42
2016-05-15T02:16:10.815Z,90.42
2016-05-15T02:17:10.788Z,90.33
2016-05-15T02:18:10.743Z,90.52
2016-05-15T02:19:10.698Z,90.61
2016-05-15T02:20:10.671Z,90.42
2016-05-15T02:21:10.626Z,90.89
2016-05-15T02:22:10.598Z,90.52
2016-05-15T02:23:10.553Z,91.28
2016-05-15T02:24:10.525Z,90.99
2016-05-15T02:25:10.512Z,90.61
2016-05-15T02:26:10.452Z,90.61
2016-05-15T02:27:10.423Z,90.89
2016-05-15T02:28:10.379Z,90.89
2016-05-15T02:29:10.351Z,90.99
2016-05-15T02:30:10.322Z,91.18
2016-05-15T02:31:10.278Z,91.08
2016-05-15T02:32:10.233Z,91.18
2016-05-15T02:33:10.206Z,91.18
2016-05-15T02:34:10.177Z,91.08
2016-05-15T02:35:10.132Z,90.99
2016-05-15T02:36:10.088Z,90.99
2016-05-15T02:37:10.060Z,91.18
2016-05-15T02:38:10.031Z,91.08
2016-05-15T02:39:09.987Z,91.13
2016-05-15T02:40:09.958Z,90.7
2016-05-15T02:41:09.914Z,90.42
2016-05-15T02:42:09.885Z,90.8
2016-05-15T02:43:09.841Z,90.85
2016-05-15T02:44:09.813Z,90.94
2016-05-15T02:45:09.769Z,90.94
2016-05-15T02:46:09.740Z,90.47
2016-05-15T02:47:09.696Z,90.66
2016-05-15T02:48:09.667Z,90.47
2016-05-15T02:49:09.639Z,91.04
2016-05-15T02:50:09.595Z,90.94
2016-05-15T02:51:09.565Z,90.47
2016-05-15T02:52:09.523Z,90.94
2016-05-15T02:53:09.493Z,91.04
2016-05-15T02:54:09.448Z,90.66
2016-05-15T02:55:09.420Z,90.85
2016-05-15T02:56:09.376Z,90.94
2016-05-15T02:57:09.348Z,90.85
2016-05-15T02:58:09.319Z,91.13
2016-05-15T02:59:09.276Z,91.04
2016-05-15T03:00:09.231Z,90.47
2016-05-15T03:01:09.202Z,90.94
2016-05-15T03:02:09.158Z,90.94
2016-05-15T03:03:09.130Z,91.13
2016-05-15T03:04:09.085Z,90.94
2016-05-15T03:05:09.072Z,90.56
2016-05-15T03:06:09.028Z,90.56
2016-05-15T03:07:08.984Z,90.75
2016-05-15T03:08:08.940Z,90.47
2016-05-15T03:09:08.911Z,90.37
2016-05-15T03:10:08.883Z,90.56
2016-05-15T03:11:08.838Z,90.47
2016-05-15T03:12:08.810Z,90.75
2016-05-15T03:13:08.782Z,90.37
2016-05-15T03:14:08.738Z,90.37
2016-05-15T03:15:08.709Z,90.56
2016-05-15T03:16:08.665Z,90.56
2016-05-15T03:17:08.636Z,90.75
2016-05-15T03:18:08.592Z,90.94
2016-05-15T03:19:08.563Z,90.56
2016-05-15T03:20:08.518Z,90.75
2016-05-15T03:21:08.491Z,90.94
2016-05-15T03:22:08.446Z,90.75
2016-05-15T03:23:08.401Z,90.94
2016-05-15T03:24:08.374Z,90.94
2016-05-15T03:25:08.345Z,90.85
2016-05-15T03:26:08.300Z,90.66
2016-05-15T03:27:08.273Z,90.47
2016-05-15T03:28:08.228Z,90.66
2016-05-15T03:29:08.200Z,90.37
2016-05-15T03:30:08.155Z,90.28
2016-05-15T03:31:08.127Z,90.56
2016-05-15T03:32:08.098Z,90.47
2016-05-15T03:33:08.053Z,90.47
2016-05-15T03:34:08.025Z,90.37
2016-05-15T03:35:07.981Z,90.47
2016-05-15T03:36:07.953Z,90.37
2016-05-15T03:37:07.908Z,90.47
2016-05-15T03:38:07.880Z,90.66
2016-05-15T03:39:07.836Z,90.37
2016-05-15T03:40:07.807Z,90.47
2016-05-15T03:41:07.763Z,90.37
2016-05-15T03:42:07.735Z,90.37
2016-05-15T03:43:07.691Z,90.85
2016-05-15T03:44:07.662Z,90.56
2016-05-15T03:45:07.617Z,90
2016-05-15T03:46:07.589Z,90.56
2016-05-15T03:47:07.560Z,90.66
2016-05-15T03:48:07.515Z,90.75
2016-05-15T03:49:07.472Z,90.66
2016-05-15T03:50:07.444Z,90.47
2016-05-15T03:51:07.399Z,90.47
2016-05-15T03:52:07.370Z,90.28
2016-05-15T03:53:07.327Z,90.47
2016-05-15T03:54:07.298Z,90.47
2016-05-15T03:55:07.269Z,90.56
2016-05-15T03:56:07.226Z,90.66
2016-05-15T03:57:07.197Z,90.28
2016-05-15T03:58:07.153Z,90.66
2016-05-15T03:59:07.123Z,90.75
2016-05-15T04:00:07.080Z,90.85
2016-05-15T04:01:07.051Z,91.04
2016-05-15T04:02:07.006Z,91.13
2016-05-15T04:03:06.978Z,90.47
2016-05-15T04:04:07.309Z,90.66
2016-05-15T04:05:06.906Z,90.66
2016-05-15T04:06:06.861Z,90.66
2016-05-15T04:07:06.833Z,90.37
2016-05-15T04:08:06.789Z,90.66
2016-05-15T04:09:06.760Z,90.56
2016-05-15T04:10:06.716Z,90.66
2016-05-15T04:11:06.703Z,91.04
2016-05-15T04:12:06.659Z,90.94
2016-05-15T04:13:06.615Z,91.13
2016-05-15T04:14:06.585Z,91.13
2016-05-15T04:15:06.542Z,90.94
2016-05-15T04:16:06.513Z,90.66
2016-05-15T04:17:06.468Z,91.04
2016-05-15T04:18:06.441Z,90.85
2016-05-15T04:19:06.396Z,90.66
2016-05-15T04:20:06.368Z,90.66
2016-05-15T04:21:06.340Z,90.66
2016-05-15T04:22:06.296Z,90.56
2016-05-15T04:23:06.251Z,90.94
2016-05-15T04:24:06.222Z,90.75
2016-05-15T04:25:06.179Z,90.85
2016-05-15T04:26:06.150Z,90.85
2016-05-15T04:27:06.106Z,90.94
2016-05-15T04:28:06.076Z,90.66
2016-05-15T04:29:06.048Z,90.85
2016-05-15T04:30:06.004Z,90.75
2016-05-15T04:31:05.975Z,90.94
2016-05-15T04:32:05.931Z,90.85
2016-05-15T04:33:05.903Z,90.94
2016-05-15T04:34:05.859Z,91.04
2016-05-15T04:35:05.830Z,90.85
2016-05-15T04:36:05.786Z,91.04
2016-05-15T04:37:05.758Z,90.47
2016-05-15T04:38:05.713Z,91.13
2016-05-15T04:39:05.685Z,90.66
2016-05-15T04:40:05.641Z,90.94
2016-05-15T04:41:05.611Z,90.75
2016-05-15T04:42:05.568Z,90.85
2016-05-15T04:43:05.539Z,90.66
2016-05-15T04:44:05.494Z,90.94
2016-05-15T04:45:05.466Z,91.13
2016-05-15T04:46:05.421Z,90.47
2016-05-15T04:47:05.394Z,90.85
2016-05-15T04:48:05.349Z,90.37
2016-05-15T04:49:05.321Z,90.37
2016-05-15T04:50:05.277Z,90.66
2016-05-15T04:51:05.248Z,90.7
2016-05-15T04:52:05.204Z,90.52
2016-05-15T04:53:05.176Z,90.7
2016-05-15T04:54:05.131Z,89.94
2016-05-15T04:55:05.103Z,89.75
2016-05-15T04:56:05.074Z,90.14
2016-05-15T04:57:05.030Z,89.47
2016-05-15T04:58:05.001Z,89.37
2016-05-15T04:59:04.973Z,89.47
2016-05-15T05:00:04.928Z,89.18
2016-05-15T05:01:04.900Z,89
2016-05-15T05:02:04.856Z,89.09
2016-05-15T05:03:04.811Z,89.28
2016-05-15T05:04:04.784Z,88.9
2016-05-15T05:05:04.755Z,89.18
2016-05-15T05:06:04.725Z,89
2016-05-15T05:07:04.682Z,89
2016-05-15T05:08:04.638Z,89.47
2016-05-15T05:09:04.608Z,89.09
2016-05-15T05:10:04.581Z,89.09
2016-05-15T05:11:04.536Z,89.47
2016-05-15T05:12:04.492Z,88.42
2016-05-15T05:13:04.463Z,88.71
2016-05-15T05:14:04.435Z,88.61
2016-05-15T05:15:04.391Z,88.71
2016-05-15T05:16:04.362Z,87.95
2016-05-15T05:17:04.318Z,88.42
2016-05-15T05:18:04.290Z,88.37
2016-05-15T05:19:04.261Z,88.42
2016-05-15T05:20:04.216Z,87.76
2016-05-15T05:21:04.188Z,87.99
2016-05-15T05:22:04.144Z,87.8
2016-05-15T05:23:04.115Z,87.9
2016-05-15T05:24:04.071Z,87.9
2016-05-15T05:25:04.042Z,87.52
2016-05-15T05:26:04.015Z,87.04
2016-05-15T05:27:03.970Z,87.71
2016-05-15T05:28:03.925Z,87.13
2016-05-15T05:29:03.898Z,87.04
2016-05-15T05:30:03.868Z,87.23
2016-05-15T05:31:03.824Z,86.57
2016-05-15T05:32:03.795Z,86.85
2016-05-15T05:33:03.752Z,86.47
2016-05-15T05:34:03.723Z,86.47
2016-05-15T05:35:03.694Z,86.28
2016-05-15T05:36:03.651Z,86.09
2016-05-15T05:37:03.622Z,85.61
2016-05-15T05:38:03.577Z,85.08
2016-05-15T05:39:03.549Z,85.08
2016-05-15T05:40:03.520Z,84.7
2016-05-15T05:41:03.477Z,84.99
2016-05-15T05:42:03.447Z,84.23
2016-05-15T05:43:03.403Z,84.99
2016-05-15T05:44:03.375Z,83.47
2016-05-15T05:45:03.330Z,84.04
2016-05-15T05:46:03.302Z,83.47
2016-05-15T05:47:03.274Z,82.99
2016-05-15T05:48:03.230Z,83.47
2016-05-15T05:49:03.638Z,82.65
2016-05-15T05:50:03.969Z,82.18
2016-05-15T05:51:03.941Z,81.6
2016-05-15T05:52:03.271Z,80.5
2016-05-15T05:53:03.868Z,79.11
2016-05-15T05:54:03.027Z,78.25
2016-05-15T05:55:02.998Z,76.29
2016-05-15T05:56:02.970Z,76.01
2016-05-15T05:57:02.926Z,75.72
2016-05-15T05:58:03.693Z,75.15
2016-05-15T05:59:03.665Z,75.34
2016-05-15T06:00:03.636Z,73.66
2016-05-15T06:01:03.593Z,72.8
2016-05-15T06:02:03.564Z,71.88
2016-05-15T06:03:03.536Z,71.02
2016-05-15T06:04:02.710Z,70.36
2016-05-15T06:05:02.666Z,69.87
2016-05-15T06:06:03.434Z,69.65
2016-05-15T06:07:03.406Z,70.13
2016-05-15T06:08:03.377Z,70.36
2016-05-15T06:09:03.348Z,69.78
2016-05-15T06:10:03.304Z,69.11
2016-05-15T06:11:03.276Z,68.54
2016-05-15T06:12:03.247Z,67.62
2016-05-15T06:13:03.219Z,65.74
2016-05-15T06:14:03.190Z,64.53
2016-05-15T06:15:03.146Z,64.05
2016-05-15T06:16:03.133Z,64.15
2016-05-15T06:17:03.088Z,63.76
2016-05-15T06:18:03.061Z,63.57
2016-05-15T06:19:02.407Z,62.9
2016-05-15T06:20:02.362Z,62.9
2016-05-15T06:21:02.975Z,62.24
2016-05-15T06:22:02.305Z,62.43
2016-05-15T06:23:02.917Z,61.28
2016-05-15T06:24:02.920Z,60.52
2016-05-15T06:25:02.235Z,59.88
2016-05-15T06:26:02.019Z,59.69
2016-05-15T06:27:02.787Z,59.97
2016-05-15T06:28:02.134Z,59.37
2016-05-15T06:29:02.731Z,58.73
2016-05-15T06:30:02.701Z,55.98
2016-05-15T06:31:02.048Z,55.34
2016-05-15T06:32:02.645Z,54.99
2016-05-15T06:33:01.992Z,53.93
2016-05-15T06:34:01.962Z,53.36
2016-05-15T06:35:02.559Z,53.93
2016-05-15T06:36:02.531Z,53.93
2016-05-15T06:37:02.502Z,53.07
2016-05-15T06:38:01.848Z,52.69
2016-05-15T06:39:01.913Z,51.54
2016-05-15T06:40:02.417Z,50.79
2016-05-15T06:41:02.388Z,50.73
2016-05-15T06:42:02.358Z,48.64
2016-05-15T06:43:02.331Z,48.16
2016-05-15T06:44:02.302Z,48.38
2016-05-15T06:45:02.274Z,48.16
2016-05-15T06:46:02.244Z,48.35
2016-05-15T06:47:02.217Z,48.71
2016-05-15T06:48:02.188Z,49
2016-05-15T06:49:02.174Z,49.84
2016-05-15T06:50:02.147Z,50.7
2016-05-15T06:51:02.102Z,50.7
2016-05-15T06:52:01.448Z,50.12
2016-05-15T06:53:02.060Z,49.55
2016-05-15T06:54:02.016Z,48.71
2016-05-15T06:55:01.363Z,47.37
2016-05-15T06:56:01.974Z,45.3
2016-05-15T06:57:01.321Z,42.85
2016-05-15T06:58:01.918Z,41.06
2016-05-15T06:59:01.889Z,40.22
2016-05-15T07:00:01.876Z,40.51
2016-05-15T07:01:01.848Z,41.35
2016-05-15T07:02:01.820Z,41.7
2016-05-15T07:03:01.165Z,43.12
2016-05-15T07:04:01.981Z,43.48
2016-05-15T07:05:01.109Z,44.61
2016-05-15T07:06:01.720Z,45.36
2016-05-15T07:07:01.691Z,45.26
2016-05-15T07:08:01.664Z,44.23
2016-05-15T07:09:01.619Z,43.38
2016-05-15T07:10:01.591Z,43.19
2016-05-15T07:11:01.577Z,42.81
2016-05-15T07:12:00.972Z,42.71
2016-05-15T07:13:01.520Z,42.79
2016-05-15T07:14:00.882Z,42.79
2016-05-15T07:15:01.464Z,43.17
2016-05-15T07:16:00.810Z,44.2
2016-05-15T07:17:01.422Z,44.49
2016-05-15T07:18:01.394Z,44.87
2016-05-15T07:19:01.349Z,44.78
2016-05-15T07:20:01.336Z,44.59
2016-05-15T07:21:00.682Z,44.01
2016-05-15T07:22:01.279Z,43.27
2016-05-15T07:23:01.251Z,43.07
2016-05-15T07:24:01.222Z,43.17
2016-05-15T07:25:00.568Z,43.05
2016-05-15T07:26:01.165Z,43.15
2016-05-15T07:27:01.152Z,43.73
2016-05-15T07:28:01.107Z,44.11
2016-05-15T07:29:01.079Z,43.24
2016-05-15T07:30:01.066Z,43.24
2016-05-15T07:31:01.023Z,42.98
2016-05-15T07:32:00.384Z,43.17
2016-05-15T07:33:00.981Z,42.77
2016-05-15T07:34:00.952Z,42.29
2016-05-15T07:35:00.283Z,42.67
2016-05-15T07:36:00.894Z,41.71
2016-05-15T07:37:00.867Z,41.08
2016-05-15T07:38:00.869Z,40.12
2016-05-15T07:39:00.829Z,39.56
2016-05-15T07:40:00.844Z,39.28
2016-05-15T07:41:00.235Z,38.34
2016-05-15T07:42:00.873Z,37.01
2016-05-15T07:43:00.888Z,35.12
2016-05-15T07:44:00.891Z,34.37
2016-05-15T07:45:00.878Z,34.08
2016-05-15T07:46:00.881Z,33.89
2016-05-15T07:47:00.868Z,33.89
2016-05-15T07:48:00.870Z,33.31
2016-05-15T07:49:01.634Z,33.59
2016-05-15T07:50:00.830Z,34.17
2016-05-15T07:51:00.166Z,34.56
2016-05-15T07:52:00.783Z,34.83
2016-05-15T07:53:00.761Z,34.43
2016-05-15T07:54:00.736Z,34.16
2016-05-15T07:55:00.833Z,33.77
2016-05-15T07:56:00.698Z,34.05
2016-05-15T07:57:00.655Z,34.43
2016-05-15T07:58:00.644Z,34.33
2016-05-15T07:59:00.617Z,34.81
2016-05-15T08:00:00.605Z,35.66
2016-05-15T08:01:00.577Z,36.22
2016-05-15T08:02:00.533Z,36.9
2016-05-15T08:03:00.522Z,36.9
2016-05-15T08:04:00.493Z,37.35
2016-05-15T08:04:59.840Z,37.34
2016-05-15T08:06:00.453Z,37.72
2016-05-15T08:07:00.410Z,38.28
2016-05-15T08:08:00.381Z,38.37
2016-05-15T08:09:00.368Z,38.18
2016-05-15T08:10:00.341Z,38.76
2016-05-15T08:11:00.311Z,38.37
2016-05-15T08:12:00.282Z,38.1
2016-05-15T08:13:00.254Z,38.29
2016-05-15T08:14:00.226Z,38.29
2016-05-15T08:14:59.572Z,36.68
2016-05-15T08:15:59.527Z,35.55
2016-05-15T08:16:59.515Z,34.61
2016-05-15T08:18:00.112Z,33.85
2016-05-15T08:19:00.332Z,32.41
2016-05-15T08:20:00.054Z,31.56
2016-05-15T08:20:59.401Z,31.37
2016-05-15T08:22:00.013Z,31.19
2016-05-15T08:22:59.984Z,31.09
2016-05-15T08:23:59.971Z,30.73
2016-05-15T08:24:59.943Z,30.73
2016-05-15T08:25:59.273Z,30.43
2016-05-15T08:26:59.261Z,30.04
2016-05-15T08:27:59.856Z,30.42
2016-05-15T08:28:59.204Z,30.32
2016-05-15T08:29:59.815Z,30.4
2016-05-15T08:30:59.786Z,30.98
2016-05-15T08:31:59.758Z,31.45
2016-05-15T08:32:59.730Z,31.83
2016-05-15T08:33:59.076Z,31.92
2016-05-15T08:35:00.141Z,31.8
2016-05-15T08:35:59.036Z,32.18
2016-05-15T08:36:59.616Z,32.55
2016-05-15T08:37:59.602Z,31.51
2016-05-15T08:38:59.575Z,29.04
2016-05-15T08:39:59.546Z,27.92
2016-05-15T08:40:59.516Z,26.95
2016-05-15T08:41:59.488Z,26.97
2016-05-15T08:42:59.475Z,26.97
2016-05-15T08:43:59.447Z,27.46
2016-05-15T08:44:59.418Z,28.03
2016-05-15T08:45:59.405Z,28.03
2016-05-15T08:46:59.424Z,27.92
2016-05-15T08:47:59.363Z,28.58
2016-05-15T08:48:59.320Z,28.85
2016-05-15T08:49:58.666Z,28.85
2016-05-15T08:50:58.638Z,29.03
2016-05-15T08:51:59.234Z,30.18
2016-05-15T08:52:59.221Z,30.84
2016-05-15T08:53:59.192Z,31.51
2016-05-15T08:54:59.164Z,31.98
2016-05-15T08:55:58.510Z,32.46
2016-05-15T08:56:59.107Z,33.01
2016-05-15T08:57:59.078Z,33.31
2016-05-15T08:58:59.065Z,33.69
2016-05-15T08:59:59.021Z,34.06
2016-05-15T09:00:59.008Z,34.92
2016-05-15T09:01:58.980Z,35.69
2016-05-15T09:02:58.951Z,36.63
2016-05-15T09:03:58.922Z,37.2
2016-05-15T09:04:58.973Z,37.66
2016-05-15T09:05:58.241Z,37.66
2016-05-15T09:06:58.836Z,38.14
2016-05-15T09:07:58.183Z,38.22
2016-05-15T09:08:58.779Z,37.84
2016-05-15T09:09:58.751Z,35.08
2016-05-15T09:10:59.567Z,29.96
2016-05-15T09:11:58.694Z,26.1
2016-05-15T09:12:58.665Z,22.98
2016-05-15T09:13:58.653Z,19.55
2016-05-15T09:14:58.624Z,17.46
2016-05-15T09:15:57.970Z,15.84
2016-05-15T09:16:58.566Z,15.86
2016-05-15T09:17:58.555Z,16.62
2016-05-15T09:18:58.526Z,17.29
2016-05-15T09:20:00.168Z,16.69
2016-05-15T09:21:01.452Z,16.39
2016-05-15T09:21:57.845Z,16.01
2016-05-15T09:22:57.802Z,16.2
2016-05-15T09:23:58.414Z,16.39
2016-05-15T09:24:58.385Z,15.91
2016-05-15T09:25:58.373Z,16.29
2016-05-15T09:26:58.343Z,16.66
2016-05-15T09:27:57.706Z,16.64
2016-05-15T09:28:58.303Z,17.41
2016-05-15T09:29:58.273Z,18.17
2016-05-15T09:30:57.620Z,19.03
2016-05-15T09:31:57.592Z,19.88
2016-05-15T09:32:58.203Z,20.74
2016-05-15T09:33:58.191Z,20.83
2016-05-15T09:34:58.803Z,20.17
2016-05-15T09:35:57.524Z,18.46
2016-05-15T09:36:57.495Z,16.66
2016-05-15T09:37:58.092Z,14.74
2016-05-15T09:38:58.080Z,13.6
2016-05-15T09:39:57.425Z,13.99
2016-05-15T09:40:57.397Z,14.85
2016-05-15T09:41:58.025Z,15.12
2016-05-15T09:42:57.980Z,16.28
2016-05-15T09:43:57.968Z,16.36
2016-05-15T09:44:57.938Z,16.07
2016-05-15T09:45:57.927Z,16.17
2016-05-15T09:46:57.288Z,16.16
2016-05-15T09:47:57.244Z,15.68
2016-05-15T09:48:57.856Z,15.58
2016-05-15T09:49:57.827Z,16.64
2016-05-15T09:50:57.799Z,17.21
2016-05-15T09:51:57.786Z,16.63
2016-05-15T09:52:57.773Z,15.77
2016-05-15T09:53:57.760Z,15.78
2016-05-15T09:54:57.731Z,16.25
2016-05-15T09:55:57.703Z,16.44
2016-05-15T09:56:57.674Z,16.92
2016-05-15T09:57:57.661Z,17.01
2016-05-15T09:58:57.634Z,16.14
2016-05-15T09:59:57.604Z,15.58
2016-05-15T10:00:57.592Z,14.9
2016-05-15T10:01:57.562Z,14.33
2016-05-15T10:02:57.550Z,13.57
2016-05-15T10:03:57.522Z,13.96
2016-05-15T10:04:56.883Z,14.64
2016-05-15T10:05:56.855Z,15.2
2016-05-15T10:06:57.467Z,15.19
2016-05-15T10:07:57.439Z,15.67
2016-05-15T10:08:57.425Z,16.52
2016-05-15T10:09:57.396Z,17.49
2016-05-15T10:10:57.368Z,17.48
2016-05-15T10:11:57.340Z,17.76
2016-05-15T10:12:57.327Z,17.95
2016-05-15T10:13:57.298Z,18.8
2016-05-15T10:14:57.270Z,19.28
2016-05-15T10:15:57.257Z,19.75
2016-05-15T10:16:57.228Z,20.33
2016-05-15T10:17:57.199Z,20.7
2016-05-15T10:18:57.188Z,21.09
2016-05-15T10:19:56.533Z,19.56
2016-05-15T10:20:57.130Z,18.14
2016-05-15T10:21:57.116Z,17.4
2016-05-15T10:22:57.087Z,16.62
2016-05-15T10:23:57.076Z,16.44
2016-05-15T10:24:57.031Z,15.28
2016-05-15T10:25:57.018Z,14.72
2016-05-15T10:26:56.989Z,14.91
2016-05-15T10:27:56.992Z,14.72
2016-05-15T10:28:57.010Z,13.65
2016-05-15T10:29:56.935Z,12.79
2016-05-15T10:30:56.922Z,12.13
2016-05-15T10:31:56.972Z,12.24
2016-05-15T10:32:56.865Z,11.27
2016-05-15T10:33:56.212Z,10.6
2016-05-15T10:34:56.855Z,9.14
2016-05-15T10:35:56.169Z,7.79
2016-05-15T10:36:56.782Z,7.12
2016-05-15T10:37:56.754Z,7.23
2016-05-15T10:38:56.741Z,7.32
2016-05-15T10:39:56.711Z,8.01
2016-05-15T10:40:56.700Z,8.2
2016-05-15T10:41:56.686Z,8.09
2016-05-15T10:42:56.970Z,9.34
2016-05-15T10:43:56.644Z,9.24
2016-05-15T10:44:56.616Z,9.72
2016-05-15T10:45:56.603Z,9.03
2016-05-15T10:46:56.591Z,8.06
2016-05-15T10:47:56.593Z,8.46
2016-05-15T10:48:56.580Z,8.26
2016-05-15T10:49:56.895Z,7.79
2016-05-15T10:50:56.133Z,7.59
2016-05-15T10:51:55.854Z,8.08
2016-05-15T10:52:55.840Z,7.79
2016-05-15T10:53:56.484Z,7.69
2016-05-15T10:54:56.439Z,7.5
2016-05-15T10:55:56.427Z,7.79
2016-05-15T10:56:56.398Z,8.46
2016-05-15T10:57:56.010Z,9.03
2016-05-15T10:58:56.356Z,9.91
2016-05-15T10:59:56.344Z,10.1
2016-05-15T11:00:55.690Z,10.57
2016-05-15T11:01:56.287Z,11.24
2016-05-15T11:02:56.273Z,11.54
2016-05-15T11:03:56.246Z,12.59
2016-05-15T11:04:56.231Z,13.17
2016-05-15T11:05:56.204Z,13.06
2016-05-15T11:06:56.191Z,13.34
2016-05-15T11:07:56.162Z,14.2
2016-05-15T11:08:56.133Z,15.07
2016-05-15T11:09:56.137Z,15.06
2016-05-15T11:10:56.092Z,15.73
2016-05-15T11:11:56.080Z,15.25
2016-05-15T11:12:56.050Z,15.05
2016-05-15T11:13:56.038Z,15.15
2016-05-15T11:14:55.993Z,15.14
2016-05-15T11:15:56.028Z,15.23
2016-05-15T11:16:55.952Z,16.29
2016-05-15T11:17:55.939Z,16.28
2016-05-15T11:18:55.910Z,15.52
2016-05-15T11:19:55.257Z,15.6
2016-05-15T11:20:55.854Z,16.47
2016-05-15T11:21:55.215Z,17.33
2016-05-15T11:22:55.827Z,17.53
2016-05-15T11:24:07.205Z,17.9
2016-05-15T11:24:55.817Z,18.1
2016-05-15T11:25:55.742Z,18.38
2016-05-15T11:26:56.229Z,18.86
2016-05-15T11:27:55.059Z,19.53
2016-05-15T11:28:55.656Z,19.82
2016-05-15T11:29:55.628Z,20.2
2016-05-15T11:30:54.974Z,20.48
2016-05-15T11:31:54.961Z,20.48
2016-05-15T11:32:55.573Z,20.39
2016-05-15T11:33:55.576Z,20.39
2016-05-15T11:34:56.142Z,20.87
2016-05-15T11:35:55.487Z,21.15
2016-05-15T11:36:55.459Z,20.67
2016-05-15T11:37:54.789Z,20.57
2016-05-15T11:38:55.402Z,20.86
2016-05-15T11:39:55.389Z,20.47
2016-05-15T11:40:55.345Z,21.15
2016-05-15T11:41:54.691Z,20.75
2016-05-15T11:42:55.303Z,21.42
2016-05-15T11:43:55.258Z,21.33
2016-05-15T11:44:55.247Z,20.94
2016-05-15T11:45:55.217Z,21.51
2016-05-15T11:46:55.189Z,21.51
2016-05-15T11:47:55.176Z,22.18
2016-05-15T11:48:55.132Z,21.89
2016-05-15T11:49:55.102Z,22.19
2016-05-15T11:50:55.075Z,22.09
2016-05-15T11:51:55.046Z,22.09
2016-05-15T11:52:55.033Z,21.81
2016-05-15T11:53:55.004Z,22.11
2016-05-15T11:54:54.960Z,21.82
2016-05-15T11:55:54.947Z,22.01
2016-05-15T11:56:54.935Z,21.64
2016-05-15T11:57:54.891Z,21.25
2016-05-15T11:58:54.862Z,21.64
2016-05-15T11:59:54.833Z,22.01
2016-05-15T12:00:54.820Z,22.01
2016-05-15T12:01:54.198Z,22.49
2016-05-15T12:02:54.763Z,22.2
2016-05-15T12:03:54.735Z,22.49
2016-05-15T12:04:55.237Z,22.78
2016-05-15T12:05:54.662Z,22.67
2016-05-15T12:06:54.633Z,22.96
2016-05-15T12:07:54.620Z,22.77
2016-05-15T12:08:54.592Z,22.38
2016-05-15T12:09:54.564Z,22.29
2016-05-15T12:10:54.534Z,22.58
2016-05-15T12:11:54.506Z,22.77
2016-05-15T12:12:54.478Z,22.29
2016-05-15T12:13:54.450Z,22
2016-05-15T12:14:54.420Z,22.67
2016-05-15T12:15:54.392Z,22.86
2016-05-15T12:16:54.379Z,22.77
2016-05-15T12:17:54.335Z,23.06
2016-05-15T12:18:54.305Z,23.63
2016-05-15T12:19:54.277Z,23.91
2016-05-15T12:20:54.266Z,23.82
2016-05-15T12:21:54.236Z,24.39
2016-05-15T12:22:54.224Z,24.87
2016-05-15T12:23:54.179Z,25.35
2016-05-15T12:24:54.151Z,25.65
2016-05-15T12:25:53.496Z,24.29
2016-05-15T12:26:54.094Z,24.58
2016-05-15T12:27:54.065Z,24.39
2016-05-15T12:28:54.037Z,24.2
2016-05-15T12:29:54.007Z,25.06
2016-05-15T12:30:53.979Z,24.39
2016-05-15T12:31:53.951Z,23.72
2016-05-15T12:32:53.923Z,23.43
2016-05-15T12:33:53.893Z,23.72
2016-05-15T12:34:53.881Z,23.62
2016-05-15T12:35:53.836Z,23.8
2016-05-15T12:36:53.823Z,23.42
2016-05-15T12:37:53.154Z,23.42
2016-05-15T12:38:53.767Z,23.52
2016-05-15T12:39:53.738Z,23.9
2016-05-15T12:40:53.709Z,24.95
2016-05-15T12:41:53.665Z,24.28
2016-05-15T12:42:53.652Z,23.9
2016-05-15T12:43:53.092Z,24.19
2016-05-15T12:44:53.594Z,24.2
2016-05-15T12:45:53.551Z,24.68
2016-05-15T12:46:53.522Z,24.02
2016-05-15T12:47:53.509Z,23.44
2016-05-15T12:48:52.841Z,23.44
2016-05-15T12:49:53.780Z,23.63
2016-05-15T12:50:53.439Z,23.15
2016-05-15T12:51:52.769Z,23.72
2016-05-15T12:52:52.554Z,23.14
2016-05-15T12:53:52.541Z,23.62
2016-05-15T12:54:52.513Z,22.47
2016-05-15T12:55:52.468Z,22.76